sensor_id;sensor_type;location;lat;lon;timestamp;P1;durP1;ratioP1;P2;durP2;ratioP2
46931;SDS011;32670;51.464;11.964;2023-07-20T00:01:12;5.23;;;1.47;;
46931;SDS011;32670;51.464;11.964;2023-07-20T00:03:38;1.93;;;1.40;;
46931;SDS011;32670;51.464;11.964;2023-07-20T00:06:04;2.77;;;1.50;;
46931;SDS011;32670;51.464;11.964;2023-07-20T00:08:29;1.97;;;1.37;;
46931;SDS011;32670;51.464;11.964;2023-07-20T00:10:55;1.93;;;1.10;;
46931;SDS011;32670;51.464;11.964;2023-07-20T00:13:21;2.30;;;1.47;;
46931;SDS011;32670;51.464;11.964;2023-07-20T00:15:47;1.73;;;1.20;;
46931;SDS011;32670;51.464;11.964;2023-07-20T00:18:12;4.60;;;1.60;;
46931;SDS011;32670;51.464;11.964;2023-07-20T00:20:38;2.50;;;1.57;;
46931;SDS011;32670;51.464;11.964;2023-07-20T00:23:04;5.10;;;1.50;;
46931;SDS011;32670;51.464;11.964;2023-07-20T00:25:29;2.23;;;1.37;;
46931;SDS011;32670;51.464;11.964;2023-07-20T00:27:55;2.03;;;1.37;;
46931;SDS011;32670;51.464;11.964;2023-07-20T00:30:20;2.83;;;1.20;;
46931;SDS011;32670;51.464;11.964;2023-07-20T00:32:46;3.03;;;1.27;;
46931;SDS011;32670;51.464;11.964;2023-07-20T00:35:11;2.40;;;1.30;;
46931;SDS011;32670;51.464;11.964;2023-07-20T00:37:39;1.50;;;1.17;;
46931;SDS011;32670;51.464;11.964;2023-07-20T00:40:05;2.67;;;1.33;;
46931;SDS011;32670;51.464;11.964;2023-07-20T00:42:32;2.87;;;1.13;;
46931;SDS011;32670;51.464;11.964;2023-07-20T00:44:58;3.63;;;1.40;;
46931;SDS011;32670;51.464;11.964;2023-07-20T00:47:23;1.40;;;1.10;;
46931;SDS011;32670;51.464;11.964;2023-07-20T00:49:49;3.43;;;1.30;;
46931;SDS011;32670;51.464;11.964;2023-07-20T00:52:16;3.03;;;1.50;;
46931;SDS011;32670;51.464;11.964;2023-07-20T00:54:45;1.97;;;1.17;;
46931;SDS011;32670;51.464;11.964;2023-07-20T00:57:11;2.67;;;1.07;;
46931;SDS011;32670;51.464;11.964;2023-07-20T00:59:39;1.40;;;1.10;;
46931;SDS011;32670;51.464;11.964;2023-07-20T01:02:05;1.27;;;1.00;;
46931;SDS011;32670;51.464;11.964;2023-07-20T01:04:30;1.80;;;1.30;;
46931;SDS011;32670;51.464;11.964;2023-07-20T01:07:05;2.10;;;1.20;;
46931;SDS011;32670;51.464;11.964;2023-07-20T01:09:52;1.63;;;1.17;;
46931;SDS011;32670;51.464;11.964;2023-07-20T01:12:27;2.13;;;1.30;;
46931;SDS011;32670;51.464;11.964;2023-07-20T01:15:13;3.20;;;1.17;;
46931;SDS011;32670;51.464;11.964;2023-07-20T01:17:39;2.10;;;1.10;;
46931;SDS011;32670;51.464;11.964;2023-07-20T01:20:06;3.37;;;1.30;;
46931;SDS011;32670;51.464;11.964;2023-07-20T01:31:47;1.80;;;1.30;;
46931;SDS011;32670;51.464;11.964;2023-07-20T01:34:17;2.27;;;1.30;;
46931;SDS011;32670;51.464;11.964;2023-07-20T01:36:43;2.97;;;1.43;;
46931;SDS011;32670;51.464;11.964;2023-07-20T01:39:09;5.13;;;1.23;;
46931;SDS011;32670;51.464;11.964;2023-07-20T01:41:35;2.17;;;1.20;;
46931;SDS011;32670;51.464;11.964;2023-07-20T01:44:03;2.33;;;1.17;;
46931;SDS011;32670;51.464;11.964;2023-07-20T01:46:28;1.87;;;1.20;;
46931;SDS011;32670;51.464;11.964;2023-07-20T01:48:54;3.67;;;1.30;;
46931;SDS011;32670;51.464;11.964;2023-07-20T01:51:20;2.53;;;1.30;;
46931;SDS011;32670;51.464;11.964;2023-07-20T01:53:45;3.23;;;1.43;;
46931;SDS011;32670;51.464;11.964;2023-07-20T01:56:11;2.17;;;1.37;;
46931;SDS011;32670;51.464;11.964;2023-07-20T01:58:37;1.83;;;1.03;;
46931;SDS011;32670;51.464;11.964;2023-07-20T02:01:02;1.87;;;1.10;;
46931;SDS011;32670;51.464;11.964;2023-07-20T02:03:28;3.40;;;1.30;;
46931;SDS011;32670;51.464;11.964;2023-07-20T02:05:54;2.90;;;1.27;;
46931;SDS011;32670;51.464;11.964;2023-07-20T02:08:19;4.47;;;1.30;;
46931;SDS011;32670;51.464;11.964;2023-07-20T02:10:45;1.60;;;1.10;;
46931;SDS011;32670;51.464;11.964;2023-07-20T02:13:12;3.10;;;1.40;;
46931;SDS011;32670;51.464;11.964;2023-07-20T02:15:37;4.13;;;1.53;;
46931;SDS011;32670;51.464;11.964;2023-07-20T02:18:03;2.23;;;1.40;;
46931;SDS011;32670;51.464;11.964;2023-07-20T02:20:28;2.60;;;1.30;;
46931;SDS011;32670;51.464;11.964;2023-07-20T02:22:54;1.63;;;0.97;;
46931;SDS011;32670;51.464;11.964;2023-07-20T02:25:20;1.97;;;1.17;;
46931;SDS011;32670;51.464;11.964;2023-07-20T02:27:45;3.07;;;1.20;;
46931;SDS011;32670;51.464;11.964;2023-07-20T02:30:11;2.47;;;1.30;;
46931;SDS011;32670;51.464;11.964;2023-07-20T02:32:36;2.33;;;1.23;;
46931;SDS011;32670;51.464;11.964;2023-07-20T02:35:02;2.17;;;1.23;;
46931;SDS011;32670;51.464;11.964;2023-07-20T02:37:28;2.43;;;1.20;;
46931;SDS011;32670;51.464;11.964;2023-07-20T02:39:54;2.23;;;1.37;;
46931;SDS011;32670;51.464;11.964;2023-07-20T02:42:20;2.60;;;1.33;;
46931;SDS011;32670;51.464;11.964;2023-07-20T02:44:47;2.67;;;1.30;;
46931;SDS011;32670;51.464;11.964;2023-07-20T02:47:14;2.13;;;1.10;;
46931;SDS011;32670;51.464;11.964;2023-07-20T02:49:39;2.27;;;1.20;;
46931;SDS011;32670;51.464;11.964;2023-07-20T02:52:05;4.37;;;1.30;;
46931;SDS011;32670;51.464;11.964;2023-07-20T02:54:31;2.30;;;1.20;;
46931;SDS011;32670;51.464;11.964;2023-07-20T02:56:56;2.67;;;1.27;;
46931;SDS011;32670;51.464;11.964;2023-07-20T02:59:22;3.07;;;1.00;;
46931;SDS011;32670;51.464;11.964;2023-07-20T03:01:47;1.97;;;1.10;;
46931;SDS011;32670;51.464;11.964;2023-07-20T03:04:13;2.40;;;1.30;;
46931;SDS011;32670;51.464;11.964;2023-07-20T03:06:38;2.10;;;1.00;;
46931;SDS011;32670;51.464;11.964;2023-07-20T03:09:04;1.57;;;1.10;;
46931;SDS011;32670;51.464;11.964;2023-07-20T03:11:29;3.63;;;1.40;;
46931;SDS011;32670;51.464;11.964;2023-07-20T03:13:56;2.57;;;1.20;;
46931;SDS011;32670;51.464;11.964;2023-07-20T03:16:23;1.33;;;1.10;;
46931;SDS011;32670;51.464;11.964;2023-07-20T03:18:50;3.77;;;1.30;;
46931;SDS011;32670;51.464;11.964;2023-07-20T03:21:15;1.60;;;1.20;;
46931;SDS011;32670;51.464;11.964;2023-07-20T03:23:41;1.97;;;1.17;;
46931;SDS011;32670;51.464;11.964;2023-07-20T03:26:07;2.33;;;1.20;;
46931;SDS011;32670;51.464;11.964;2023-07-20T03:28:34;1.67;;;1.20;;
46931;SDS011;32670;51.464;11.964;2023-07-20T03:31:03;2.63;;;1.40;;
46931;SDS011;32670;51.464;11.964;2023-07-20T03:33:29;2.90;;;1.30;;
46931;SDS011;32670;51.464;11.964;2023-07-20T03:35:56;2.93;;;1.30;;
46931;SDS011;32670;51.464;11.964;2023-07-20T03:38:22;2.83;;;1.20;;
46931;SDS011;32670;51.464;11.964;2023-07-20T03:43:17;2.70;;;1.23;;
46931;SDS011;32670;51.464;11.964;2023-07-20T03:45:43;1.20;;;1.10;;
46931;SDS011;32670;51.464;11.964;2023-07-20T03:48:10;1.83;;;1.30;;
46931;SDS011;32670;51.464;11.964;2023-07-20T03:50:36;2.90;;;1.20;;
46931;SDS011;32670;51.464;11.964;2023-07-20T03:53:01;3.17;;;1.23;;
46931;SDS011;32670;51.464;11.964;2023-07-20T03:55:27;1.87;;;1.40;;
46931;SDS011;32670;51.464;11.964;2023-07-20T03:57:53;1.60;;;1.30;;
46931;SDS011;32670;51.464;11.964;2023-07-20T04:00:18;2.70;;;1.40;;
46931;SDS011;32670;51.464;11.964;2023-07-20T04:02:44;1.30;;;1.20;;
46931;SDS011;32670;51.464;11.964;2023-07-20T04:05:09;5.47;;;1.30;;
46931;SDS011;32670;51.464;11.964;2023-07-20T04:07:35;2.43;;;1.33;;
46931;SDS011;32670;51.464;11.964;2023-07-20T04:10:00;2.03;;;1.20;;
46931;SDS011;32670;51.464;11.964;2023-07-20T04:12:26;3.77;;;1.40;;
46931;SDS011;32670;51.464;11.964;2023-07-20T04:14:51;2.43;;;1.37;;
46931;SDS011;32670;51.464;11.964;2023-07-20T04:17:17;3.57;;;1.30;;
46931;SDS011;32670;51.464;11.964;2023-07-20T04:19:43;2.47;;;1.40;;
46931;SDS011;32670;51.464;11.964;2023-07-20T04:22:09;3.23;;;1.30;;
46931;SDS011;32670;51.464;11.964;2023-07-20T04:24:34;4.00;;;1.43;;
46931;SDS011;32670;51.464;11.964;2023-07-20T04:27:00;4.50;;;1.40;;
46931;SDS011;32670;51.464;11.964;2023-07-20T04:29:25;2.50;;;1.37;;
46931;SDS011;32670;51.464;11.964;2023-07-20T04:31:51;1.97;;;1.30;;
46931;SDS011;32670;51.464;11.964;2023-07-20T04:34:16;3.40;;;1.30;;
46931;SDS011;32670;51.464;11.964;2023-07-20T04:36:42;2.67;;;1.30;;
46931;SDS011;32670;51.464;11.964;2023-07-20T04:39:07;3.37;;;1.43;;
46931;SDS011;32670;51.464;11.964;2023-07-20T04:41:33;2.60;;;1.47;;
46931;SDS011;32670;51.464;11.964;2023-07-20T04:43:59;4.73;;;1.43;;
46931;SDS011;32670;51.464;11.964;2023-07-20T04:46:24;2.30;;;1.43;;
46931;SDS011;32670;51.464;11.964;2023-07-20T04:48:50;3.27;;;1.60;;
46931;SDS011;32670;51.464;11.964;2023-07-20T04:51:15;2.80;;;1.40;;
46931;SDS011;32670;51.464;11.964;2023-07-20T04:53:42;4.07;;;1.47;;
46931;SDS011;32670;51.464;11.964;2023-07-20T04:56:08;2.40;;;1.50;;
46931;SDS011;32670;51.464;11.964;2023-07-20T04:58:33;2.63;;;1.50;;
46931;SDS011;32670;51.464;11.964;2023-07-20T05:00:59;2.67;;;1.53;;
46931;SDS011;32670;51.464;11.964;2023-07-20T05:03:24;2.33;;;1.30;;
46931;SDS011;32670;51.464;11.964;2023-07-20T05:05:50;3.40;;;1.40;;
46931;SDS011;32670;51.464;11.964;2023-07-20T05:08:15;6.03;;;1.43;;
46931;SDS011;32670;51.464;11.964;2023-07-20T05:10:41;5.23;;;1.60;;
46931;SDS011;32670;51.464;11.964;2023-07-20T05:13:06;10.20;;;1.57;;
46931;SDS011;32670;51.464;11.964;2023-07-20T05:15:33;7.57;;;2.13;;
46931;SDS011;32670;51.464;11.964;2023-07-20T05:17:59;4.97;;;1.93;;
46931;SDS011;32670;51.464;11.964;2023-07-20T05:20:25;8.23;;;1.83;;
46931;SDS011;32670;51.464;11.964;2023-07-20T05:22:50;2.50;;;1.90;;
46931;SDS011;32670;51.464;11.964;2023-07-20T05:25:17;3.13;;;1.80;;
46931;SDS011;32670;51.464;11.964;2023-07-20T05:27:44;3.13;;;1.70;;
46931;SDS011;32670;51.464;11.964;2023-07-20T05:30:11;4.17;;;1.70;;
46931;SDS011;32670;51.464;11.964;2023-07-20T05:32:37;5.83;;;1.73;;
46931;SDS011;32670;51.464;11.964;2023-07-20T05:35:02;5.67;;;1.80;;
46931;SDS011;32670;51.464;11.964;2023-07-20T05:37:28;2.63;;;1.60;;
46931;SDS011;32670;51.464;11.964;2023-07-20T05:39:53;2.83;;;1.40;;
46931;SDS011;32670;51.464;11.964;2023-07-20T05:42:19;4.20;;;2.10;;
46931;SDS011;32670;51.464;11.964;2023-07-20T05:44:44;5.03;;;1.63;;
46931;SDS011;32670;51.464;11.964;2023-07-20T05:47:12;5.80;;;1.80;;
46931;SDS011;32670;51.464;11.964;2023-07-20T05:49:37;4.43;;;1.60;;
46931;SDS011;32670;51.464;11.964;2023-07-20T05:52:03;3.47;;;1.83;;
46931;SDS011;32670;51.464;11.964;2023-07-20T05:54:28;5.60;;;1.73;;
46931;SDS011;32670;51.464;11.964;2023-07-20T05:56:54;5.83;;;1.70;;
46931;SDS011;32670;51.464;11.964;2023-07-20T05:59:19;4.60;;;2.30;;
46931;SDS011;32670;51.464;11.964;2023-07-20T06:01:45;6.73;;;1.73;;
46931;SDS011;32670;51.464;11.964;2023-07-20T06:04:13;7.43;;;2.00;;
46931;SDS011;32670;51.464;11.964;2023-07-20T06:06:39;4.53;;;1.70;;
46931;SDS011;32670;51.464;11.964;2023-07-20T06:09:05;3.23;;;2.00;;
46931;SDS011;32670;51.464;11.964;2023-07-20T06:11:34;4.83;;;1.60;;
46931;SDS011;32670;51.464;11.964;2023-07-20T06:14:00;3.47;;;1.40;;
46931;SDS011;32670;51.464;11.964;2023-07-20T06:16:25;8.73;;;1.83;;
46931;SDS011;32670;51.464;11.964;2023-07-20T06:18:51;4.43;;;1.67;;
46931;SDS011;32670;51.464;11.964;2023-07-20T06:21:16;5.47;;;1.70;;
46931;SDS011;32670;51.464;11.964;2023-07-20T06:23:42;8.37;;;1.70;;
46931;SDS011;32670;51.464;11.964;2023-07-20T06:26:07;4.30;;;1.70;;
46931;SDS011;32670;51.464;11.964;2023-07-20T06:28:33;4.27;;;1.47;;
46931;SDS011;32670;51.464;11.964;2023-07-20T06:30:59;2.83;;;1.60;;
46931;SDS011;32670;51.464;11.964;2023-07-20T06:33:26;4.17;;;1.57;;
46931;SDS011;32670;51.464;11.964;2023-07-20T06:35:51;4.80;;;2.00;;
46931;SDS011;32670;51.464;11.964;2023-07-20T06:38:17;3.40;;;1.50;;
46931;SDS011;32670;51.464;11.964;2023-07-20T06:40:45;2.13;;;1.40;;
46931;SDS011;32670;51.464;11.964;2023-07-20T06:43:11;4.03;;;1.80;;
46931;SDS011;32670;51.464;11.964;2023-07-20T06:45:37;6.17;;;1.73;;
46931;SDS011;32670;51.464;11.964;2023-07-20T06:48:02;4.27;;;1.50;;
46931;SDS011;32670;51.464;11.964;2023-07-20T06:50:28;3.53;;;1.80;;
46931;SDS011;32670;51.464;11.964;2023-07-20T06:52:54;3.03;;;2.00;;
46931;SDS011;32670;51.464;11.964;2023-07-20T06:55:19;6.27;;;1.77;;
46931;SDS011;32670;51.464;11.964;2023-07-20T06:57:45;3.27;;;1.73;;
46931;SDS011;32670;51.464;11.964;2023-07-20T07:00:10;3.80;;;1.50;;
46931;SDS011;32670;51.464;11.964;2023-07-20T07:02:37;3.30;;;1.57;;
46931;SDS011;32670;51.464;11.964;2023-07-20T07:05:03;5.10;;;1.77;;
46931;SDS011;32670;51.464;11.964;2023-07-20T07:07:29;4.87;;;1.70;;
46931;SDS011;32670;51.464;11.964;2023-07-20T07:09:54;3.40;;;1.63;;
46931;SDS011;32670;51.464;11.964;2023-07-20T07:12:20;4.30;;;1.63;;
46931;SDS011;32670;51.464;11.964;2023-07-20T07:14:45;2.53;;;1.60;;
46931;SDS011;32670;51.464;11.964;2023-07-20T07:17:11;2.83;;;1.90;;
46931;SDS011;32670;51.464;11.964;2023-07-20T07:19:36;4.23;;;1.90;;
46931;SDS011;32670;51.464;11.964;2023-07-20T07:22:03;3.87;;;1.47;;
46931;SDS011;32670;51.464;11.964;2023-07-20T07:24:29;4.73;;;1.40;;
46931;SDS011;32670;51.464;11.964;2023-07-20T07:26:58;2.80;;;1.10;;
46931;SDS011;32670;51.464;11.964;2023-07-20T07:29:24;3.33;;;1.17;;
46931;SDS011;32670;51.464;11.964;2023-07-20T07:31:50;1.07;;;0.97;;
46931;SDS011;32670;51.464;11.964;2023-07-20T07:34:16;3.63;;;1.10;;
46931;SDS011;32670;51.464;11.964;2023-07-20T07:36:41;3.90;;;1.20;;
46931;SDS011;32670;51.464;11.964;2023-07-20T07:39:07;2.37;;;1.30;;
46931;SDS011;32670;51.464;11.964;2023-07-20T07:41:34;2.13;;;1.20;;
46931;SDS011;32670;51.464;11.964;2023-07-20T07:43:59;4.90;;;1.30;;
46931;SDS011;32670;51.464;11.964;2023-07-20T07:46:25;3.40;;;1.17;;
46931;SDS011;32670;51.464;11.964;2023-07-20T07:48:50;2.50;;;1.10;;
46931;SDS011;32670;51.464;11.964;2023-07-20T07:51:16;4.23;;;1.10;;
46931;SDS011;32670;51.464;11.964;2023-07-20T07:53:41;3.33;;;1.00;;
46931;SDS011;32670;51.464;11.964;2023-07-20T07:56:08;4.00;;;1.20;;
46931;SDS011;32670;51.464;11.964;2023-07-20T07:58:34;2.03;;;1.00;;
46931;SDS011;32670;51.464;11.964;2023-07-20T08:00:59;2.70;;;1.00;;
46931;SDS011;32670;51.464;11.964;2023-07-20T08:03:25;2.67;;;1.17;;
46931;SDS011;32670;51.464;11.964;2023-07-20T08:05:51;3.30;;;1.13;;
46931;SDS011;32670;51.464;11.964;2023-07-20T08:08:20;2.20;;;1.00;;
46931;SDS011;32670;51.464;11.964;2023-07-20T08:10:45;2.37;;;1.03;;
46931;SDS011;32670;51.464;11.964;2023-07-20T08:13:12;1.33;;;1.00;;
46931;SDS011;32670;51.464;11.964;2023-07-20T08:15:38;2.27;;;0.83;;
46931;SDS011;32670;51.464;11.964;2023-07-20T08:18:03;1.47;;;0.87;;
46931;SDS011;32670;51.464;11.964;2023-07-20T08:20:29;1.73;;;0.93;;
46931;SDS011;32670;51.464;11.964;2023-07-20T08:22:54;2.13;;;1.10;;
46931;SDS011;32670;51.464;11.964;2023-07-20T08:25:21;1.03;;;0.93;;
46931;SDS011;32670;51.464;11.964;2023-07-20T08:27:46;1.77;;;1.07;;
46931;SDS011;32670;51.464;11.964;2023-07-20T08:30:12;1.03;;;0.93;;
46931;SDS011;32670;51.464;11.964;2023-07-20T08:32:38;1.57;;;0.90;;
46931;SDS011;32670;51.464;11.964;2023-07-20T08:35:04;2.40;;;1.20;;
46931;SDS011;32670;51.464;11.964;2023-07-20T08:37:30;1.10;;;1.00;;
46931;SDS011;32670;51.464;11.964;2023-07-20T08:39:56;1.33;;;1.00;;
46931;SDS011;32670;51.464;11.964;2023-07-20T08:42:21;0.97;;;0.83;;
46931;SDS011;32670;51.464;11.964;2023-07-20T08:44:48;1.27;;;0.87;;
46931;SDS011;32670;51.464;11.964;2023-07-20T08:47:14;1.67;;;0.90;;
46931;SDS011;32670;51.464;11.964;2023-07-20T08:49:41;1.73;;;0.97;;
46931;SDS011;32670;51.464;11.964;2023-07-20T08:52:07;1.13;;;0.90;;
46931;SDS011;32670;51.464;11.964;2023-07-20T08:54:33;1.60;;;1.10;;
46931;SDS011;32670;51.464;11.964;2023-07-20T08:57:04;1.47;;;1.07;;
46931;SDS011;32670;51.464;11.964;2023-07-20T08:59:30;1.00;;;0.90;;
46931;SDS011;32670;51.464;11.964;2023-07-20T09:01:57;1.50;;;0.90;;
46931;SDS011;32670;51.464;11.964;2023-07-20T09:04:24;1.20;;;0.90;;
46931;SDS011;32670;51.464;11.964;2023-07-20T09:06:49;2.30;;;1.07;;
46931;SDS011;32670;51.464;11.964;2023-07-20T09:09:15;0.93;;;0.87;;
46931;SDS011;32670;51.464;11.964;2023-07-20T09:11:41;1.20;;;0.90;;
46931;SDS011;32670;51.464;11.964;2023-07-20T09:14:08;1.17;;;0.93;;
46931;SDS011;32670;51.464;11.964;2023-07-20T09:16:50;2.60;;;1.00;;
46931;SDS011;32670;51.464;11.964;2023-07-20T09:19:18;1.10;;;1.00;;
46931;SDS011;32670;51.464;11.964;2023-07-20T09:21:44;0.90;;;0.90;;
46931;SDS011;32670;51.464;11.964;2023-07-20T09:24:12;2.17;;;0.97;;
46931;SDS011;32670;51.464;11.964;2023-07-20T09:26:41;1.00;;;0.93;;
46931;SDS011;32670;51.464;11.964;2023-07-20T09:29:08;1.30;;;1.20;;
46931;SDS011;32670;51.464;11.964;2023-07-20T09:31:37;4.03;;;1.80;;
46931;SDS011;32670;51.464;11.964;2023-07-20T09:34:03;2.07;;;1.90;;
46931;SDS011;32670;51.464;11.964;2023-07-20T09:36:31;2.50;;;2.23;;
46931;SDS011;32670;51.464;11.964;2023-07-20T09:38:59;2.87;;;2.30;;
46931;SDS011;32670;51.464;11.964;2023-07-20T09:41:25;1.97;;;1.87;;
46931;SDS011;32670;51.464;11.964;2023-07-20T09:43:51;3.03;;;2.10;;
46931;SDS011;32670;51.464;11.964;2023-07-20T09:46:18;3.60;;;2.17;;
46931;SDS011;32670;51.464;11.964;2023-07-20T09:48:51;2.30;;;2.10;;
46931;SDS011;32670;51.464;11.964;2023-07-20T09:51:18;2.27;;;1.80;;
46931;SDS011;32670;51.464;11.964;2023-07-20T09:53:47;2.20;;;1.90;;
46931;SDS011;32670;51.464;11.964;2023-07-20T09:56:13;3.87;;;2.00;;
46931;SDS011;32670;51.464;11.964;2023-07-20T09:58:41;1.70;;;1.60;;
46931;SDS011;32670;51.464;11.964;2023-07-20T10:01:08;2.33;;;1.70;;
46931;SDS011;32670;51.464;11.964;2023-07-20T10:03:35;2.10;;;1.67;;
46931;SDS011;32670;51.464;11.964;2023-07-20T10:06:05;2.37;;;2.03;;
46931;SDS011;32670;51.464;11.964;2023-07-20T10:08:34;2.63;;;1.70;;
46931;SDS011;32670;51.464;11.964;2023-07-20T10:11:04;1.90;;;1.70;;
46931;SDS011;32670;51.464;11.964;2023-07-20T10:13:32;2.20;;;2.00;;
46931;SDS011;32670;51.464;11.964;2023-07-20T10:16:02;2.03;;;1.93;;
46931;SDS011;32670;51.464;11.964;2023-07-20T10:18:35;3.97;;;2.23;;
46931;SDS011;32670;51.464;11.964;2023-07-20T10:21:06;1.93;;;1.77;;
46931;SDS011;32670;51.464;11.964;2023-07-20T10:23:33;2.10;;;1.90;;
46931;SDS011;32670;51.464;11.964;2023-07-20T10:25:59;1.63;;;1.53;;
46931;SDS011;32670;51.464;11.964;2023-07-20T10:28:26;2.33;;;1.90;;
46931;SDS011;32670;51.464;11.964;2023-07-20T10:30:52;2.07;;;1.87;;
46931;SDS011;32670;51.464;11.964;2023-07-20T10:33:18;3.70;;;1.90;;
46931;SDS011;32670;51.464;11.964;2023-07-20T10:35:59;1.87;;;1.73;;
46931;SDS011;32670;51.464;11.964;2023-07-20T10:38:40;2.40;;;2.03;;
46931;SDS011;32670;51.464;11.964;2023-07-20T10:41:27;2.27;;;1.90;;
46931;SDS011;32670;51.464;11.964;2023-07-20T10:44:27;2.77;;;1.80;;
46931;SDS011;32670;51.464;11.964;2023-07-20T10:46:46;2.70;;;1.80;;
46931;SDS011;32670;51.464;11.964;2023-07-20T10:49:12;3.87;;;1.90;;
46931;SDS011;32670;51.464;11.964;2023-07-20T10:51:40;2.67;;;2.00;;
46931;SDS011;32670;51.464;11.964;2023-07-20T10:54:51;2.13;;;2.00;;
46931;SDS011;32670;51.464;11.964;2023-07-20T10:56:52;2.10;;;1.90;;
46931;SDS011;32670;51.464;11.964;2023-07-20T10:59:18;2.07;;;1.90;;
46931;SDS011;32670;51.464;11.964;2023-07-20T11:01:47;2.90;;;2.10;;
46931;SDS011;32670;51.464;11.964;2023-07-20T11:04:16;1.90;;;1.80;;
46931;SDS011;32670;51.464;11.964;2023-07-20T11:06:44;2.50;;;1.83;;
46931;SDS011;32670;51.464;11.964;2023-07-20T11:09:10;2.30;;;2.10;;
46931;SDS011;32670;51.464;11.964;2023-07-20T11:11:40;2.00;;;1.90;;
46931;SDS011;32670;51.464;11.964;2023-07-20T11:14:25;1.83;;;1.73;;
46931;SDS011;32670;51.464;11.964;2023-07-20T11:16:51;2.33;;;1.80;;
46931;SDS011;32670;51.464;11.964;2023-07-20T11:21:45;2.10;;;2.00;;
46931;SDS011;32670;51.464;11.964;2023-07-20T11:24:12;2.27;;;1.70;;
46931;SDS011;32670;51.464;11.964;2023-07-20T11:26:40;1.90;;;1.80;;
46931;SDS011;32670;51.464;11.964;2023-07-20T11:29:07;2.20;;;2.10;;
46931;SDS011;32670;51.464;11.964;2023-07-20T11:31:36;2.30;;;1.90;;
46931;SDS011;32670;51.464;11.964;2023-07-20T11:34:06;2.13;;;1.93;;
46931;SDS011;32670;51.464;11.964;2023-07-20T11:36:37;3.10;;;1.83;;
46931;SDS011;32670;51.464;11.964;2023-07-20T11:39:03;2.07;;;1.80;;
46931;SDS011;32670;51.464;11.964;2023-07-20T11:41:30;2.20;;;2.07;;
46931;SDS011;32670;51.464;11.964;2023-07-20T11:43:56;1.93;;;1.83;;
46931;SDS011;32670;51.464;11.964;2023-07-20T11:46:22;2.40;;;2.20;;
46931;SDS011;32670;51.464;11.964;2023-07-20T11:48:47;2.70;;;2.50;;
46931;SDS011;32670;51.464;11.964;2023-07-20T11:51:14;3.30;;;2.40;;
46931;SDS011;32670;51.464;11.964;2023-07-20T11:53:43;2.83;;;2.40;;
46931;SDS011;32670;51.464;11.964;2023-07-20T11:56:11;3.77;;;2.30;;
46931;SDS011;32670;51.464;11.964;2023-07-20T11:58:41;3.03;;;2.20;;
46931;SDS011;32670;51.464;11.964;2023-07-20T12:01:10;2.50;;;2.30;;
46931;SDS011;32670;51.464;11.964;2023-07-20T12:03:36;2.50;;;2.30;;
46931;SDS011;32670;51.464;11.964;2023-07-20T12:06:08;2.30;;;2.10;;
46931;SDS011;32670;51.464;11.964;2023-07-20T12:08:34;2.47;;;2.27;;
46931;SDS011;32670;51.464;11.964;2023-07-20T12:11:00;2.07;;;1.97;;
46931;SDS011;32670;51.464;11.964;2023-07-20T12:13:43;2.37;;;2.17;;
46931;SDS011;32670;51.464;11.964;2023-07-20T12:16:13;2.40;;;2.20;;
46931;SDS011;32670;51.464;11.964;2023-07-20T12:18:40;2.30;;;2.10;;
46931;SDS011;32670;51.464;11.964;2023-07-20T12:21:06;2.93;;;2.40;;
46931;SDS011;32670;51.464;11.964;2023-07-20T12:23:40;2.30;;;2.10;;
46931;SDS011;32670;51.464;11.964;2023-07-20T12:26:09;2.13;;;2.00;;
46931;SDS011;32670;51.464;11.964;2023-07-20T12:28:35;1.97;;;1.77;;
46931;SDS011;32670;51.464;11.964;2023-07-20T12:31:07;2.10;;;2.00;;
46931;SDS011;32670;51.464;11.964;2023-07-20T12:33:34;2.40;;;2.20;;
46931;SDS011;32670;51.464;11.964;2023-07-20T12:36:00;2.20;;;1.93;;
46931;SDS011;32670;51.464;11.964;2023-07-20T12:38:26;2.00;;;1.80;;
46931;SDS011;32670;51.464;11.964;2023-07-20T12:40:52;1.80;;;1.70;;
46931;SDS011;32670;51.464;11.964;2023-07-20T12:43:20;2.07;;;1.97;;
46931;SDS011;32670;51.464;11.964;2023-07-20T12:45:45;2.00;;;1.90;;
46931;SDS011;32670;51.464;11.964;2023-07-20T12:48:11;2.20;;;2.00;;
46931;SDS011;32670;51.464;11.964;2023-07-20T12:50:36;1.70;;;1.60;;
46931;SDS011;32670;51.464;11.964;2023-07-20T12:53:02;1.83;;;1.73;;
46931;SDS011;32670;51.464;11.964;2023-07-20T12:55:28;2.20;;;2.10;;
46931;SDS011;32670;51.464;11.964;2023-07-20T12:57:54;1.47;;;1.37;;
46931;SDS011;32670;51.464;11.964;2023-07-20T13:00:20;1.63;;;1.53;;
46931;SDS011;32670;51.464;11.964;2023-07-20T13:02:48;1.50;;;1.40;;
46931;SDS011;32670;51.464;11.964;2023-07-20T13:05:14;1.60;;;1.50;;
46931;SDS011;32670;51.464;11.964;2023-07-20T13:07:40;1.70;;;1.60;;
46931;SDS011;32670;51.464;11.964;2023-07-20T13:10:06;1.33;;;1.23;;
46931;SDS011;32670;51.464;11.964;2023-07-20T13:12:34;1.30;;;1.20;;
46931;SDS011;32670;51.464;11.964;2023-07-20T13:15:03;1.47;;;1.37;;
46931;SDS011;32670;51.464;11.964;2023-07-20T13:17:37;2.50;;;1.60;;
46931;SDS011;32670;51.464;11.964;2023-07-20T13:20:04;1.30;;;1.20;;
46931;SDS011;32670;51.464;11.964;2023-07-20T13:22:31;1.57;;;1.47;;
46931;SDS011;32670;51.464;11.964;2023-07-20T13:24:57;1.47;;;1.37;;
46931;SDS011;32670;51.464;11.964;2023-07-20T13:27:22;1.70;;;1.60;;
46931;SDS011;32670;51.464;11.964;2023-07-20T13:29:50;1.50;;;1.40;;
46931;SDS011;32670;51.464;11.964;2023-07-20T13:32:16;2.00;;;1.80;;
46931;SDS011;32670;51.464;11.964;2023-07-20T13:34:42;1.93;;;1.73;;
46931;SDS011;32670;51.464;11.964;2023-07-20T13:37:09;1.50;;;1.40;;
46931;SDS011;32670;51.464;11.964;2023-07-20T13:39:35;1.60;;;1.50;;
46931;SDS011;32670;51.464;11.964;2023-07-20T13:42:01;1.60;;;1.50;;
46931;SDS011;32670;51.464;11.964;2023-07-20T13:44:28;1.70;;;1.60;;
46931;SDS011;32670;51.464;11.964;2023-07-20T13:46:54;1.53;;;1.43;;
46931;SDS011;32670;51.464;11.964;2023-07-20T13:49:19;1.50;;;1.40;;
46931;SDS011;32670;51.464;11.964;2023-07-20T13:51:45;1.50;;;1.40;;
46931;SDS011;32670;51.464;11.964;2023-07-20T13:54:10;1.47;;;1.37;;
46931;SDS011;32670;51.464;11.964;2023-07-20T13:56:36;1.40;;;1.30;;
46931;SDS011;32670;51.464;11.964;2023-07-20T13:59:02;1.10;;;1.00;;
46931;SDS011;32670;51.464;11.964;2023-07-20T14:01:27;1.43;;;1.33;;
46931;SDS011;32670;51.464;11.964;2023-07-20T14:03:54;1.37;;;1.27;;
46931;SDS011;32670;51.464;11.964;2023-07-20T14:06:20;1.33;;;1.20;;
46931;SDS011;32670;51.464;11.964;2023-07-20T14:08:46;1.70;;;1.20;;
46931;SDS011;32670;51.464;11.964;2023-07-20T14:11:12;1.50;;;1.40;;
46931;SDS011;32670;51.464;11.964;2023-07-20T14:13:38;1.50;;;1.40;;
46931;SDS011;32670;51.464;11.964;2023-07-20T14:16:04;1.63;;;1.43;;
46931;SDS011;32670;51.464;11.964;2023-07-20T14:18:29;1.43;;;1.33;;
46931;SDS011;32670;51.464;11.964;2023-07-20T14:20:55;1.20;;;1.20;;
46931;SDS011;32670;51.464;11.964;2023-07-20T14:23:20;1.30;;;1.20;;
46931;SDS011;32670;51.464;11.964;2023-07-20T14:25:46;1.47;;;1.37;;
46931;SDS011;32670;51.464;11.964;2023-07-20T14:28:11;1.60;;;1.50;;
46931;SDS011;32670;51.464;11.964;2023-07-20T14:30:37;1.50;;;1.40;;
46931;SDS011;32670;51.464;11.964;2023-07-20T14:33:03;1.30;;;1.20;;
46931;SDS011;32670;51.464;11.964;2023-07-20T14:35:29;1.70;;;1.60;;
46931;SDS011;32670;51.464;11.964;2023-07-20T14:37:54;1.00;;;1.00;;
46931;SDS011;32670;51.464;11.964;2023-07-20T14:40:19;1.27;;;1.17;;
46931;SDS011;32670;51.464;11.964;2023-07-20T14:42:45;1.40;;;1.30;;
46931;SDS011;32670;51.464;11.964;2023-07-20T14:45:11;1.73;;;1.20;;